Sao Joao d'Alianca, Brazil
Current Conditions -  °F | °C
As of 8:35 AM on Tuesday 27 Jan 2015 (Local Time) from SBBR Reporting Station
Broken Clouds Broken Clouds  
Wind Chill: 68°   Ceiling: 1200
Heat Index: 68°   Visibility: 6mi
Dew Point: 63°   Wind: 3mph
Humidity: 83%   Direction: 20°NNE
Pressure: 30.12"   Gusts: NA
Location:  14.71°S, 47.52°W
Report Text: SBBR 271035Z 02003KT 9999 BKN012 SCT080 20/17 Q1020
Loading
Personal Weather Stations






























Interactive Weather Map New forecast layout! Learn more

10-Day Weather Forecast

Advertisements
Track Severe Weather on mobile